Time;durP1;ratioP1;P1;durP2;ratioP2;P2;SDS_P1;SDS_P2;PMS_P1;PMS_P2;Temp;Humidity;BMP_temperature;BMP_pressure;BME280_temperature;BME280_humidity;BME280_pressure;Samples;Min_cycle;Max_cycle;Signal;HPM_P1;HPM_P2
2021/10/14 00:01:09;;;;;;;9.25;3.35;;;;;;;;;;5108504;28;20688;-60
2021/10/14 00:03:36;;;;;;;6.82;3.42;;;;;;;;;;5108141;28;20024;-60
2021/10/14 00:06:02;;;;;;;8.55;3.05;;;;;;;;;;5103691;28;20027;-60
2021/10/14 00:08:29;;;;;;;8.50;3.75;;;;;;;;;;5092556;28;20028;-60
2021/10/14 00:10:56;;;;;;;11.43;2.95;;;;;;;;;;5093000;28;20027;-61
2021/10/14 00:13:22;;;;;;;7.72;3.28;;;;;;;;;;5093228;28;20020;-60
2021/10/14 00:15:49;;;;;;;6.90;3.45;;;;;;;;;;5094603;28;20020;-61
2021/10/14 00:18:16;;;;;;;9.27;3.20;;;;;;;;;;5113476;28;20024;-60
2021/10/14 00:20:42;;;;;;;8.80;3.15;;;;;;;;;;5108279;28;20027;-60
2021/10/14 00:23:09;;;;;;;14.80;4.78;;;;;;;;;;5108123;28;20066;-60
2021/10/14 00:25:36;;;;;;;5.38;3.13;;;;;;;;;;5107986;28;20044;-60
2021/10/14 00:28:03;;;;;;;10.70;3.55;;;;;;;;;;5102264;28;20016;-60
2021/10/14 00:30:30;;;;;;;9.13;3.45;;;;;;;;;;5091184;28;20429;-60
2021/10/14 00:32:57;;;;;;;9.68;3.53;;;;;;;;;;5092609;28;20032;-60
2021/10/14 00:35:23;;;;;;;10.40;3.53;;;;;;;;;;5092853;28;20852;-60
2021/10/14 00:37:50;;;;;;;8.05;3.92;;;;;;;;;;5109903;28;20023;-61
2021/10/14 00:40:18;;;;;;;5.33;2.83;;;;;;;;;;5113236;28;20102;-60
2021/10/14 00:42:45;;;;;;;8.03;3.20;;;;;;;;;;5109367;28;20432;-60
2021/10/14 00:45:12;;;;;;;4.17;2.60;;;;;;;;;;5107654;28;20038;-60
2021/10/14 00:47:39;;;;;;;4.87;2.90;;;;;;;;;;5092176;28;20028;-60
2021/10/14 00:50:07;;;;;;;8.60;3.20;;;;;;;;;;5087347;28;20107;-60
2021/10/14 00:52:34;;;;;;;7.27;3.33;;;;;;;;;;5105210;28;20026;-60
2021/10/14 00:55:02;;;;;;;8.13;3.13;;;;;;;;;;5112447;28;20027;-60
2021/10/14 00:57:29;;;;;;;5.20;2.93;;;;;;;;;;5112911;28;20023;-60
2021/10/14 00:59:56;;;;;;;6.33;3.90;;;;;;;;;;5112821;28;20126;-61
2021/10/14 01:02:22;;;;;;;6.73;3.90;;;;;;;;;;5099389;28;20487;-60
2021/10/14 01:04:51;;;;;;;10.97;4.13;;;;;;;;;;5089481;28;20028;-60
2021/10/14 01:07:18;;;;;;;7.73;4.00;;;;;;;;;;5086982;28;20040;-60
2021/10/14 01:09:44;;;;;;;6.93;3.30;;;;;;;;;;5087063;28;20530;-60
2021/10/14 01:12:12;;;;;;;5.43;3.43;;;;;;;;;;5087176;28;20024;-60
2021/10/14 01:14:42;;;;;;;5.80;3.10;;;;;;;;;;5104990;28;20032;-60
2021/10/14 01:17:11;;;;;;;6.87;3.40;;;;;;;;;;5112588;28;20131;-60
2021/10/14 01:19:42;;;;;;;6.37;3.13;;;;;;;;;;5112612;28;20093;-60
2021/10/14 01:22:08;;;;;;;7.93;2.53;;;;;;;;;;5112451;28;20354;-59
2021/10/14 01:24:35;;;;;;;7.63;3.27;;;;;;;;;;5112599;28;20386;-62
2021/10/14 01:27:03;;;;;;;8.10;3.17;;;;;;;;;;5109081;28;20031;-62
2021/10/14 01:29:30;;;;;;;4.53;2.97;;;;;;;;;;5107132;28;20023;-62
2021/10/14 01:31:57;;;;;;;7.73;3.30;;;;;;;;;;5107324;28;20120;-62
2021/10/14 01:34:23;;;;;;;6.57;3.07;;;;;;;;;;5107528;28;20016;-63
2021/10/14 01:36:50;;;;;;;6.50;2.93;;;;;;;;;;5104074;28;20024;-63
2021/10/14 01:39:17;;;;;;;9.53;2.83;;;;;;;;;;5092038;28;20153;-62
2021/10/14 01:41:44;;;;;;;6.80;3.17;;;;;;;;;;5091717;28;20449;-62
2021/10/14 01:44:11;;;;;;;7.00;3.37;;;;;;;;;;5091939;28;20095;-62
2021/10/14 01:46:38;;;;;;;10.70;3.67;;;;;;;;;;5091370;28;20020;-60
2021/10/14 01:49:05;;;;;;;7.40;3.37;;;;;;;;;;5094473;28;20020;-60
2021/10/14 01:51:32;;;;;;;8.80;2.83;;;;;;;;;;5105166;28;20028;-60
2021/10/14 01:53:59;;;;;;;8.07;3.03;;;;;;;;;;5106360;28;20115;-60
2021/10/14 01:56:26;;;;;;;5.93;3.10;;;;;;;;;;5107119;28;20418;-60
2021/10/14 01:58:53;;;;;;;8.20;3.13;;;;;;;;;;5107335;28;20048;-60
2021/10/14 02:01:20;;;;;;;6.70;3.47;;;;;;;;;;5103656;28;20062;-60
2021/10/14 02:03:47;;;;;;;7.07;3.93;;;;;;;;;;5091245;28;20032;-60
2021/10/14 02:06:13;;;;;;;7.47;3.20;;;;;;;;;;5094048;28;20140;-60
2021/10/14 02:08:40;;;;;;;6.83;3.00;;;;;;;;;;5095515;28;20074;-59
2021/10/14 02:11:07;;;;;;;9.33;3.33;;;;;;;;;;5094786;28;20027;-60
2021/10/14 02:13:34;;;;;;;9.07;3.80;;;;;;;;;;5101732;28;20381;-60
2021/10/14 02:16:01;;;;;;;6.37;3.57;;;;;;;;;;5110658;28;20016;-60
2021/10/14 02:18:28;;;;;;;7.87;3.67;;;;;;;;;;5110657;28;20019;-62
2021/10/14 02:20:55;;;;;;;6.93;3.23;;;;;;;;;;5110110;28;20111;-62
2021/10/14 02:23:26;;;;;;;7.40;3.27;;;;;;;;;;5115564;28;20032;-59
2021/10/14 02:25:53;;;;;;;13.93;4.30;;;;;;;;;;5103295;28;20032;-60
2021/10/14 02:28:20;;;;;;;5.80;3.23;;;;;;;;;;5095026;28;20488;-63
2021/10/14 02:30:47;;;;;;;5.83;3.00;;;;;;;;;;5095092;28;20150;-60
2021/10/14 02:33:17;;;;;;;8.33;4.10;;;;;;;;;;5094881;28;20032;-60
2021/10/14 02:35:44;;;;;;;9.07;4.07;;;;;;;;;;5089864;28;20426;-60
2021/10/14 02:38:11;;;;;;;5.33;3.60;;;;;;;;;;5102611;28;20032;-61
2021/10/14 02:40:39;;;;;;;5.00;3.30;;;;;;;;;;5110016;28;20024;-60
2021/10/14 02:43:06;;;;;;;9.00;3.87;;;;;;;;;;5109969;28;20032;-59
2021/10/14 02:45:33;;;;;;;6.10;2.83;;;;;;;;;;5114518;28;20046;-60
2021/10/14 02:48:00;;;;;;;12.63;3.97;;;;;;;;;;5115354;28;20024;-60
2021/10/14 02:50:27;;;;;;;7.80;3.93;;;;;;;;;;5113036;28;20093;-60
2021/10/14 02:52:56;;;;;;;6.47;3.20;;;;;;;;;;5115122;28;20040;-60
2021/10/14 02:55:27;;;;;;;5.93;2.67;;;;;;;;;;5113819;28;20039;-60
2021/10/14 02:57:56;;;;;;;4.40;2.70;;;;;;;;;;5109935;28;20103;-60
2021/10/14 03:00:25;;;;;;;10.23;3.50;;;;;;;;;;5109671;28;20027;-60
2021/10/14 03:02:55;;;;;;;14.57;3.80;;;;;;;;;;5091517;28;20055;-59
2021/10/14 03:05:26;;;;;;;9.10;3.50;;;;;;;;;;5088838;28;20028;-60
2021/10/14 03:07:53;;;;;;;7.07;3.57;;;;;;;;;;5093346;28;20028;-59
2021/10/14 03:10:20;;;;;;;7.10;3.63;;;;;;;;;;5094586;28;20097;-60
2021/10/14 03:12:47;;;;;;;7.63;3.50;;;;;;;;;;5094422;28;20078;-60
2021/10/14 03:15:16;;;;;;;6.03;3.43;;;;;;;;;;5113599;28;20027;-60
2021/10/14 03:17:43;;;;;;;6.80;3.10;;;;;;;;;;5096170;28;20057;-60
2021/10/14 03:20:10;;;;;;;9.67;3.10;;;;;;;;;;5109782;28;20027;-60
2021/10/14 03:22:40;;;;;;;4.17;2.93;;;;;;;;;;5109087;28;20037;-59
2021/10/14 03:25:07;;;;;;;6.00;3.00;;;;;;;;;;5106571;28;20417;-59
2021/10/14 03:27:34;;;;;;;8.47;3.67;;;;;;;;;;5088712;28;20020;-60
2021/10/14 03:30:01;;;;;;;13.03;4.10;;;;;;;;;;5092587;28;20016;-60
2021/10/14 03:32:28;;;;;;;9.40;4.30;;;;;;;;;;5093985;28;20040;-60
2021/10/14 03:34:55;;;;;;;8.23;3.53;;;;;;;;;;5093771;28;20077;-60
2021/10/14 03:37:22;;;;;;;6.97;3.30;;;;;;;;;;5099789;28;20030;-59
2021/10/14 03:39:49;;;;;;;7.20;3.70;;;;;;;;;;5114207;28;20113;-60
2021/10/14 03:42:16;;;;;;;7.30;3.43;;;;;;;;;;5109799;28;20043;-60
2021/10/14 03:44:45;;;;;;;5.00;3.13;;;;;;;;;;5109163;28;20027;-59
2021/10/14 03:47:12;;;;;;;11.30;3.50;;;;;;;;;;5108801;28;20088;-60
2021/10/14 03:49:39;;;;;;;8.07;3.53;;;;;;;;;;5101845;28;20016;-60
2021/10/14 03:52:08;;;;;;;7.80;3.00;;;;;;;;;;5091362;28;20431;-59
2021/10/14 03:54:35;;;;;;;11.17;3.93;;;;;;;;;;5093601;28;20017;-60
2021/10/14 03:57:03;;;;;;;6.40;3.27;;;;;;;;;;5093456;28;20096;-59
2021/10/14 03:59:30;;;;;;;7.07;3.83;;;;;;;;;;5093074;28;20069;-60
2021/10/14 04:01:57;;;;;;;6.47;3.60;;;;;;;;;;5101963;28;20025;-59
2021/10/14 04:04:28;;;;;;;7.33;3.30;;;;;;;;;;5110393;28;20032;-60
2021/10/14 04:06:55;;;;;;;4.87;2.80;;;;;;;;;;5108506;28;20435;-60
2021/10/14 04:09:22;;;;;;;8.37;3.87;;;;;;;;;;5108567;28;20057;-60
2021/10/14 04:11:49;;;;;;;6.30;3.20;;;;;;;;;;5108223;28;20024;-60
2021/10/14 04:14:16;;;;;;;5.13;3.07;;;;;;;;;;5101223;28;20107;-60
2021/10/14 04:16:43;;;;;;;8.97;3.20;;;;;;;;;;5093042;28;20547;-60
2021/10/14 04:19:10;;;;;;;5.50;3.27;;;;;;;;;;5093331;28;20387;-60
2021/10/14 04:21:38;;;;;;;5.07;3.07;;;;;;;;;;5093068;28;20024;-60
2021/10/14 04:24:05;;;;;;;9.37;3.47;;;;;;;;;;5099879;28;20385;-60
2021/10/14 04:26:32;;;;;;;9.53;3.57;;;;;;;;;;5110484;28;20050;-59
2021/10/14 04:28:59;;;;;;;11.07;3.20;;;;;;;;;;5107398;28;20030;-60
2021/10/14 04:31:26;;;;;;;8.70;2.97;;;;;;;;;;5107799;28;20028;-59
2021/10/14 04:33:53;;;;;;;5.10;3.20;;;;;;;;;;5108244;28;20036;-60
2021/10/14 04:36:20;;;;;;;6.23;3.50;;;;;;;;;;5101816;28;20027;-59
2021/10/14 04:38:47;;;;;;;6.27;3.73;;;;;;;;;;5092727;28;20042;-59
2021/10/14 04:41:14;;;;;;;8.90;4.10;;;;;;;;;;5092894;28;20020;-59
2021/10/14 04:43:41;;;;;;;8.10;4.10;;;;;;;;;;5108785;28;20102;-59
2021/10/14 04:46:07;;;;;;;7.67;3.37;;;;;;;;;;5112949;28;20035;-60
2021/10/14 04:48:34;;;;;;;6.03;3.60;;;;;;;;;;5110779;28;20028;-60
2021/10/14 04:51:01;;;;;;;6.20;3.27;;;;;;;;;;5105817;28;20048;-59
2021/10/14 04:53:27;;;;;;;6.30;3.73;;;;;;;;;;5108146;28;20023;-58
2021/10/14 04:55:54;;;;;;;5.80;3.07;;;;;;;;;;5107943;28;20024;-58
2021/10/14 04:58:21;;;;;;;6.03;3.13;;;;;;;;;;5095709;28;20051;-58
2021/10/14 05:00:47;;;;;;;9.17;3.97;;;;;;;;;;5092676;28;20020;-58
2021/10/14 05:03:14;;;;;;;7.40;3.77;;;;;;;;;;5092758;28;20115;-58
2021/10/14 05:05:41;;;;;;;7.73;3.60;;;;;;;;;;5092231;28;20076;-59
2021/10/14 05:08:07;;;;;;;11.37;4.07;;;;;;;;;;5091843;28;20025;-59
2021/10/14 05:10:34;;;;;;;6.50;3.67;;;;;;;;;;5091308;28;20539;-58
2021/10/14 05:13:03;;;;;;;9.10;3.63;;;;;;;;;;5086847;28;20016;-61
2021/10/14 05:15:30;;;;;;;8.30;3.73;;;;;;;;;;5085805;28;20032;-57
2021/10/14 05:17:57;;;;;;;6.20;3.87;;;;;;;;;;5087279;28;20028;-59
2021/10/14 05:20:23;;;;;;;11.23;3.53;;;;;;;;;;5086511;28;20016;-59
2021/10/14 05:22:51;;;;;;;9.00;4.20;;;;;;;;;;5092308;28;20028;-59
2021/10/14 05:25:18;;;;;;;9.07;4.07;;;;;;;;;;5091954;28;20089;-59
2021/10/14 05:27:44;;;;;;;8.33;3.80;;;;;;;;;;5092472;28;20020;-59
2021/10/14 05:30:11;;;;;;;7.00;3.53;;;;;;;;;;5092387;28;20046;-59
2021/10/14 05:32:38;;;;;;;7.57;3.77;;;;;;;;;;5098189;28;20024;-59
2021/10/14 05:35:05;;;;;;;5.73;3.37;;;;;;;;;;5107695;28;20024;-59
2021/10/14 05:37:32;;;;;;;11.90;3.47;;;;;;;;;;5107468;28;20508;-59
2021/10/14 05:39:58;;;;;;;9.90;4.63;;;;;;;;;;5109739;28;20031;-59
2021/10/14 05:42:25;;;;;;;6.60;3.50;;;;;;;;;;5111098;28;20039;-59
2021/10/14 05:44:52;;;;;;;8.87;4.10;;;;;;;;;;5106795;28;20020;-59
2021/10/14 05:47:18;;;;;;;9.07;4.00;;;;;;;;;;5096335;28;20027;-59
2021/10/14 05:49:45;;;;;;;7.97;3.67;;;;;;;;;;5096276;28;20379;-59
2021/10/14 05:52:12;;;;;;;8.17;4.07;;;;;;;;;;5096092;28;20482;-59
2021/10/14 05:54:38;;;;;;;5.27;3.30;;;;;;;;;;5096064;28;20473;-59
2021/10/14 05:57:05;;;;;;;6.60;3.73;;;;;;;;;;5104053;28;20564;-58
2021/10/14 05:59:32;;;;;;;6.70;3.53;;;;;;;;;;5110874;28;20027;-59
2021/10/14 06:01:58;;;;;;;6.03;3.90;;;;;;;;;;5108595;28;20393;-59
2021/10/14 06:04:25;;;;;;;5.50;3.50;;;;;;;;;;5090793;28;20048;-59
2021/10/14 06:06:52;;;;;;;7.27;3.13;;;;;;;;;;5095043;28;20109;-59
2021/10/14 06:09:19;;;;;;;9.10;3.97;;;;;;;;;;5095443;28;20386;-59
2021/10/14 06:11:45;;;;;;;6.17;3.60;;;;;;;;;;5077401;28;20418;-59
2021/10/14 06:14:12;;;;;;;9.03;3.97;;;;;;;;;;5115241;28;20046;-58
2021/10/14 06:16:39;;;;;;;5.60;3.40;;;;;;;;;;5115813;28;20343;-59
2021/10/14 06:19:06;;;;;;;5.73;3.27;;;;;;;;;;5111523;28;20823;-59
2021/10/14 06:21:32;;;;;;;6.93;3.77;;;;;;;;;;5110940;28;20023;-59
2021/10/14 06:23:59;;;;;;;5.47;3.47;;;;;;;;;;5110194;28;20032;-59
2021/10/14 06:26:26;;;;;;;7.80;4.13;;;;;;;;;;5090409;28;20016;-59
2021/10/14 06:28:53;;;;;;;5.97;3.90;;;;;;;;;;5093745;28;20471;-58
2021/10/14 06:31:20;;;;;;;6.23;3.90;;;;;;;;;;5095368;28;20103;-59
2021/10/14 06:33:47;;;;;;;6.97;3.90;;;;;;;;;;5112665;28;20413;-59
2021/10/14 06:36:13;;;;;;;7.10;4.17;;;;;;;;;;5115545;28;20035;-58
2021/10/14 06:38:40;;;;;;;6.67;3.30;;;;;;;;;;5115566;28;20024;-59
2021/10/14 06:41:07;;;;;;;7.67;4.07;;;;;;;;;;5111765;28;20028;-58
2021/10/14 06:43:34;;;;;;;4.93;3.00;;;;;;;;;;5094068;28;20032;-59
2021/10/14 06:46:01;;;;;;;5.90;3.50;;;;;;;;;;5089981;28;20024;-59
2021/10/14 06:48:27;;;;;;;10.13;3.40;;;;;;;;;;5090133;28;20028;-58
2021/10/14 06:50:54;;;;;;;7.47;3.63;;;;;;;;;;5091746;28;20055;-59
2021/10/14 06:53:21;;;;;;;6.80;3.87;;;;;;;;;;5095032;28;20071;-58
2021/10/14 06:55:49;;;;;;;6.27;3.60;;;;;;;;;;5111717;28;20024;-59
2021/10/14 06:58:16;;;;;;;8.27;3.30;;;;;;;;;;5115069;28;20028;-59
2021/10/14 07:00:43;;;;;;;7.60;3.90;;;;;;;;;;5115530;28;20349;-59
2021/10/14 07:03:10;;;;;;;8.17;3.70;;;;;;;;;;5103980;28;20042;-58
2021/10/14 07:05:36;;;;;;;4.90;2.77;;;;;;;;;;5089647;28;20028;-59
2021/10/14 07:08:03;;;;;;;7.70;4.07;;;;;;;;;;5105447;28;20027;-59
2021/10/14 07:10:30;;;;;;;5.90;3.37;;;;;;;;;;5110027;28;20111;-58
2021/10/14 07:13:04;;;;;;;5.73;3.97;;;;;;;;;;5112316;28;20040;-58
2021/10/14 07:15:31;;;;;;;5.73;3.50;;;;;;;;;;5105555;28;20117;-59
2021/10/14 07:17:57;;;;;;;9.07;5.13;;;;;;;;;;5094600;28;20077;-59
2021/10/14 07:20:24;;;;;;;6.40;3.70;;;;;;;;;;5094183;28;20024;-58
2021/10/14 07:22:51;;;;;;;5.70;3.10;;;;;;;;;;5094159;28;20060;-59
2021/10/14 07:25:18;;;;;;;5.23;2.87;;;;;;;;;;5098188;28;20031;-59
2021/10/14 07:27:44;;;;;;;4.90;2.97;;;;;;;;;;5109555;28;20024;-58
2021/10/14 07:30:12;;;;;;;8.30;3.33;;;;;;;;;;5109524;28;20020;-58
2021/10/14 07:32:39;;;;;;;7.37;3.20;;;;;;;;;;5109437;28;20027;-59
2021/10/14 07:35:07;;;;;;;6.67;3.97;;;;;;;;;;5111193;28;20060;-58
2021/10/14 07:37:34;;;;;;;6.37;3.67;;;;;;;;;;5104528;28;20058;-58
2021/10/14 07:40:01;;;;;;;8.13;4.10;;;;;;;;;;5093929;28;20032;-58
2021/10/14 07:42:27;;;;;;;6.53;4.07;;;;;;;;;;5093571;28;20032;-59
2021/10/14 07:44:54;;;;;;;6.90;4.13;;;;;;;;;;5094009;28;20103;-59
2021/10/14 07:47:21;;;;;;;6.40;4.13;;;;;;;;;;5091755;28;20032;-59
2021/10/14 07:49:48;;;;;;;7.03;3.87;;;;;;;;;;5101565;28;20034;-58
2021/10/14 07:52:14;;;;;;;9.07;4.13;;;;;;;;;;5109140;28;20031;-59
2021/10/14 07:54:42;;;;;;;6.20;3.93;;;;;;;;;;5109029;28;20027;-58
2021/10/14 07:57:09;;;;;;;10.23;4.50;;;;;;;;;;5110645;28;20076;-58
2021/10/14 07:59:35;;;;;;;8.00;3.80;;;;;;;;;;5113708;28;20023;-59
2021/10/14 08:02:02;;;;;;;6.60;3.53;;;;;;;;;;5096628;28;20047;-59
2021/10/14 08:04:29;;;;;;;8.17;4.33;;;;;;;;;;5093074;28;20364;-58
2021/10/14 08:06:56;;;;;;;8.33;4.33;;;;;;;;;;5093547;28;20430;-59
2021/10/14 08:09:23;;;;;;;7.57;4.50;;;;;;;;;;5091807;28;20020;-59
2021/10/14 08:11:49;;;;;;;6.73;3.57;;;;;;;;;;5088226;28;20035;-59
2021/10/14 08:14:16;;;;;;;8.33;3.87;;;;;;;;;;5104147;28;20366;-59
2021/10/14 08:16:43;;;;;;;5.93;3.60;;;;;;;;;;5090245;28;20370;-59
2021/10/14 08:19:09;;;;;;;7.77;4.63;;;;;;;;;;5109436;28;20411;-58
2021/10/14 08:21:36;;;;;;;5.70;3.63;;;;;;;;;;5113712;28;20466;-58
2021/10/14 08:24:03;;;;;;;8.90;4.23;;;;;;;;;;5113430;28;20494;-58
2021/10/14 08:26:30;;;;;;;6.73;4.47;;;;;;;;;;5095590;28;20039;-58
2021/10/14 08:28:56;;;;;;;7.00;4.03;;;;;;;;;;5092972;28;20024;-58
2021/10/14 08:31:24;;;;;;;6.87;3.50;;;;;;;;;;5091399;28;20027;-59
2021/10/14 08:33:52;;;;;;;7.97;4.13;;;;;;;;;;5087846;28;20050;-58
2021/10/14 08:36:19;;;;;;;7.73;3.83;;;;;;;;;;5087745;28;20028;-58
2021/10/14 08:38:47;;;;;;;7.77;3.87;;;;;;;;;;5102898;28;20034;-58
2021/10/14 08:41:17;;;;;;;7.50;4.20;;;;;;;;;;5102181;28;20034;-58
2021/10/14 08:43:45;;;;;;;6.43;3.93;;;;;;;;;;5092760;28;20093;-58
2021/10/14 08:46:12;;;;;;;7.07;3.93;;;;;;;;;;5092338;28;20438;-58
2021/10/14 08:48:39;;;;;;;8.10;3.90;;;;;;;;;;5092877;28;20020;-58
2021/10/14 08:51:06;;;;;;;6.90;3.90;;;;;;;;;;5096518;28;20110;-58
2021/10/14 08:53:33;;;;;;;6.23;3.70;;;;;;;;;;5112338;28;20439;-58
2021/10/14 08:56:00;;;;;;;7.97;4.10;;;;;;;;;;5103784;28;20081;-58
2021/10/14 08:58:26;;;;;;;10.40;5.40;;;;;;;;;;5087804;28;20028;-59
2021/10/14 09:01:10;;;;;;;7.90;4.17;;;;;;;;;;5087709;28;20024;-58
2021/10/14 09:03:40;;;;;;;6.63;3.87;;;;;;;;;;5087966;28;20042;-58
2021/10/14 09:06:11;;;;;;;6.97;4.53;;;;;;;;;;5096212;28;20058;-58
2021/10/14 09:08:41;;;;;;;8.40;4.83;;;;;;;;;;5113001;28;20023;-58
2021/10/14 09:11:08;;;;;;;6.63;4.57;;;;;;;;;;5112910;28;20028;-58
2021/10/14 09:13:35;;;;;;;7.23;4.40;;;;;;;;;;5112331;28;20020;-58
2021/10/14 09:16:21;;;;;;;7.90;4.83;;;;;;;;;;5107072;28;20526;-58
2021/10/14 09:18:50;;;;;;;6.30;3.80;;;;;;;;;;5087190;28;20024;-58
2021/10/14 09:21:23;;;;;;;10.43;5.30;;;;;;;;;;5087396;28;20024;-58
2021/10/14 09:23:50;;;;;;;7.27;4.47;;;;;;;;;;5091150;28;20096;-58
2021/10/14 09:26:27;;;;;;;12.80;5.03;;;;;;;;;;5109134;28;20031;-58
2021/10/14 09:29:07;;;;;;;7.97;4.33;;;;;;;;;;5112800;28;20030;-58
2021/10/14 09:31:53;;;;;;;5.73;3.73;;;;;;;;;;5112696;28;20019;-58
2021/10/14 09:34:27;;;;;;;5.75;3.75;;;;;;;;;;5104577;28;20020;-59
2021/10/14 09:36:54;;;;;;;6.20;3.83;;;;;;;;;;5092224;28;20036;-58
2021/10/14 09:39:21;;;;;;;7.63;4.57;;;;;;;;;;5088934;28;20419;-58
2021/10/14 09:41:48;;;;;;;11.00;4.60;;;;;;;;;;5087298;28;20417;-58
2021/10/14 09:44:17;;;;;;;9.03;4.80;;;;;;;;;;5086768;28;20032;-58
2021/10/14 09:46:45;;;;;;;8.27;4.73;;;;;;;;;;5095524;28;20039;-58
2021/10/14 09:49:13;;;;;;;7.83;3.97;;;;;;;;;;5110109;28;20374;-59
2021/10/14 09:51:40;;;;;;;8.40;4.60;;;;;;;;;;5112488;28;20031;-58
2021/10/14 09:54:07;;;;;;;7.37;3.90;;;;;;;;;;5112396;28;20023;-59
2021/10/14 09:56:34;;;;;;;6.57;4.13;;;;;;;;;;5112583;28;20584;-58
2021/10/14 09:59:04;;;;;;;10.43;4.60;;;;;;;;;;5100409;28;20486;-58
2021/10/14 10:01:32;;;;;;;9.07;3.87;;;;;;;;;;5089308;28;20032;-58
2021/10/14 10:03:59;;;;;;;7.40;4.57;;;;;;;;;;5086906;28;20090;-58
2021/10/14 10:06:26;;;;;;;6.63;4.43;;;;;;;;;;5087047;28;20032;-58
2021/10/14 10:08:54;;;;;;;7.83;5.07;;;;;;;;;;5086958;28;20035;-58
2021/10/14 10:11:22;;;;;;;12.13;5.37;;;;;;;;;;5101515;28;20027;-58
2021/10/14 10:13:55;;;;;;;7.80;5.07;;;;;;;;;;5112176;28;20103;-58
2021/10/14 10:16:26;;;;;;;7.70;4.80;;;;;;;;;;5112497;28;20031;-59
2021/10/14 10:18:58;;;;;;;8.50;4.87;;;;;;;;;;5112172;28;20019;-58
2021/10/14 10:21:31;;;;;;;9.77;5.27;;;;;;;;;;5112187;28;20024;-58
2021/10/14 10:23:59;;;;;;;7.47;4.83;;;;;;;;;;5090036;28;20044;-58
2021/10/14 10:26:35;;;;;;;9.90;5.83;;;;;;;;;;5087278;28;20385;-58
2021/10/14 10:29:14;;;;;;;8.10;5.37;;;;;;;;;;5090410;28;20070;-58
2021/10/14 10:31:53;;;;;;;10.83;5.43;;;;;;;;;;5090296;28;20047;-58
2021/10/14 10:34:43;;;;;;;7.83;5.03;;;;;;;;;;5095312;28;20020;-59
2021/10/14 10:37:26;;;;;;;6.67;4.47;;;;;;;;;;5115792;28;20035;-58
2021/10/14 10:39:56;;;;;;;7.67;4.70;;;;;;;;;;5115370;28;20084;-59
2021/10/14 10:42:38;;;;;;;7.57;4.60;;;;;;;;;;5114901;28;20019;-58
2021/10/14 10:45:08;;;;;;;8.77;5.07;;;;;;;;;;5099959;28;20036;-58
2021/10/14 10:47:43;;;;;;;7.63;5.80;;;;;;;;;;5089892;28;20099;-58
2021/10/14 10:50:12;;;;;;;8.73;5.53;;;;;;;;;;5090038;28;20016;-58
2021/10/14 10:52:40;;;;;;;7.10;4.63;;;;;;;;;;5089786;28;20027;-58
2021/10/14 10:55:14;;;;;;;7.63;4.40;;;;;;;;;;5103358;28;20051;-58
2021/10/14 10:57:45;;;;;;;7.50;4.57;;;;;;;;;;5115283;28;20023;-58
2021/10/14 11:00:12;;;;;;;8.67;4.57;;;;;;;;;;5115157;28;20085;-58
2021/10/14 11:02:39;;;;;;;6.63;4.40;;;;;;;;;;5113005;28;20034;-58
2021/10/14 11:05:06;;;;;;;8.60;4.30;;;;;;;;;;5114877;28;20015;-58
2021/10/14 11:07:33;;;;;;;8.07;4.13;;;;;;;;;;5113965;28;20416;-58
2021/10/14 11:10:00;;;;;;;8.13;4.47;;;;;;;;;;5109926;28;20028;-58
2021/10/14 11:12:27;;;;;;;8.80;4.07;;;;;;;;;;5106251;28;20034;-58
2021/10/14 11:14:54;;;;;;;7.73;4.77;;;;;;;;;;5089502;28;20020;-58
2021/10/14 11:17:20;;;;;;;6.03;4.27;;;;;;;;;;5089981;28;20837;-59
2021/10/14 11:19:47;;;;;;;6.97;3.83;;;;;;;;;;5094316;28;20024;-58
2021/10/14 11:22:15;;;;;;;6.63;4.07;;;;;;;;;;5094009;28;20569;-58
2021/10/14 11:24:42;;;;;;;7.23;4.47;;;;;;;;;;5102214;28;20024;-58
2021/10/14 11:27:15;;;;;;;9.20;4.33;;;;;;;;;;5114683;28;20019;-58
2021/10/14 11:29:46;;;;;;;7.33;4.57;;;;;;;;;;5113559;28;20024;-58
2021/10/14 11:32:19;;;;;;;7.27;4.27;;;;;;;;;;5109483;28;20028;-58
2021/10/14 11:34:46;;;;;;;8.57;4.20;;;;;;;;;;5108703;28;20031;-58
2021/10/14 11:37:13;;;;;;;8.83;5.03;;;;;;;;;;5094666;28;20028;-58
2021/10/14 11:39:41;;;;;;;13.67;5.97;;;;;;;;;;5089873;28;20394;-58
2021/10/14 11:42:12;;;;;;;11.83;4.90;;;;;;;;;;5093966;28;20020;-58
2021/10/14 11:44:41;;;;;;;7.57;5.00;;;;;;;;;;5093794;28;20471;-58
2021/10/14 11:47:13;;;;;;;7.70;4.80;;;;;;;;;;5095082;28;20072;-58
2021/10/14 11:49:40;;;;;;;6.47;4.13;;;;;;;;;;5093803;28;20034;-58
2021/10/14 11:52:08;;;;;;;7.27;4.47;;;;;;;;;;5092209;28;20020;-57
2021/10/14 11:54:38;;;;;;;10.53;5.60;;;;;;;;;;5088738;28;20103;-58
2021/10/14 11:57:06;;;;;;;7.20;4.30;;;;;;;;;;5095404;28;20157;-57
2021/10/14 11:59:34;;;;;;;7.23;4.13;;;;;;;;;;5108952;28;20606;-58
2021/10/14 12:02:11;;;;;;;7.10;4.67;;;;;;;;;;5109429;28;20027;-58
2021/10/14 12:04:50;;;;;;;8.77;4.73;;;;;;;;;;5114060;28;20114;-58
2021/10/14 12:07:26;;;;;;;8.70;5.33;;;;;;;;;;5113931;28;20035;-58
2021/10/14 12:09:54;;;;;;;10.70;5.70;;;;;;;;;;5101738;28;20479;-58
2021/10/14 12:12:24;;;;;;;11.10;5.50;;;;;;;;;;5093035;28;20024;-58
2021/10/14 12:15:01;;;;;;;9.77;5.93;;;;;;;;;;5090766;28;20429;-58
2021/10/14 12:17:40;;;;;;;11.27;5.97;;;;;;;;;;5088793;28;20024;-58
2021/10/14 12:20:11;;;;;;;10.30;6.10;;;;;;;;;;5106880;28;20386;-58
2021/10/14 12:22:41;;;;;;;9.33;5.90;;;;;;;;;;5108593;28;20398;-58
2021/10/14 12:25:08;;;;;;;12.23;6.40;;;;;;;;;;5111269;28;20505;-58
2021/10/14 12:27:45;;;;;;;7.67;5.50;;;;;;;;;;5113391;28;20034;-58
2021/10/14 12:30:26;;;;;;;10.67;6.77;;;;;;;;;;5107831;28;20501;-58
2021/10/14 12:32:54;;;;;;;10.93;5.90;;;;;;;;;;5096972;28;20026;-58
2021/10/14 12:35:25;;;;;;;9.43;5.80;;;;;;;;;;5102731;28;20040;-58
2021/10/14 12:38:03;;;;;;;12.93;6.50;;;;;;;;;;5089078;28;20020;-59
2021/10/14 12:40:30;;;;;;;8.47;5.60;;;;;;;;;;5088055;28;20028;-58
2021/10/14 12:43:01;;;;;;;11.13;6.10;;;;;;;;;;5087315;28;20470;-58
2021/10/14 12:45:36;;;;;;;9.43;6.03;;;;;;;;;;5097730;28;20031;-58
2021/10/14 12:48:02;;;;;;;;;;;;;;;;;;5106822;28;20020;-58
2021/10/14 12:50:42;;;;;;;9.47;5.27;;;;;;;;;;5092501;28;19904;-58
2021/10/14 12:53:14;;;;;;;8.90;5.83;;;;;;;;;;5092428;28;20036;-58
2021/10/14 12:56:00;;;;;;;8.17;4.73;;;;;;;;;;5092822;28;20530;-58
2021/10/14 12:58:27;;;;;;;8.70;5.17;;;;;;;;;;5100074;28;20024;-58
2021/10/14 13:01:05;;;;;;;9.67;5.13;;;;;;;;;;5107799;28;20470;-58
2021/10/14 13:03:32;;;;;;;8.83;5.13;;;;;;;;;;5107837;28;20028;-58
2021/10/14 13:05:59;;;;;;;9.70;5.47;;;;;;;;;;5107838;28;20441;-58
2021/10/14 13:08:33;;;;;;;7.83;4.93;;;;;;;;;;5098456;28;20081;-58
2021/10/14 13:11:00;;;;;;;9.13;5.60;;;;;;;;;;5092233;28;20395;-58
2021/10/14 13:13:28;;;;;;;10.97;5.03;;;;;;;;;;5092494;28;20062;-58
2021/10/14 13:15:55;;;;;;;8.47;4.97;;;;;;;;;;5092084;28;20083;-58
2021/10/14 13:18:22;;;;;;;9.63;5.30;;;;;;;;;;5092459;28;20024;-58
2021/10/14 13:20:49;;;;;;;10.07;5.40;;;;;;;;;;5091885;28;20030;-58
2021/10/14 13:23:16;;;;;;;7.93;4.40;;;;;;;;;;5087462;28;20115;-58
2021/10/14 13:25:44;;;;;;;6.87;4.17;;;;;;;;;;5087609;28;20431;-58
2021/10/14 13:28:11;;;;;;;9.07;5.40;;;;;;;;;;5087410;28;20410;-58
2021/10/14 13:30:38;;;;;;;7.37;4.90;;;;;;;;;;5087375;28;20078;-59
2021/10/14 13:33:04;;;;;;;9.27;4.97;;;;;;;;;;5092081;28;20527;-59
2021/10/14 13:35:31;;;;;;;6.53;4.80;;;;;;;;;;5093283;28;20032;-59
2021/10/14 13:37:58;;;;;;;9.10;5.70;;;;;;;;;;5094575;28;20031;-58
2021/10/14 13:40:25;;;;;;;10.33;5.90;;;;;;;;;;5092319;28;20024;-59
2021/10/14 13:42:55;;;;;;;10.80;5.97;;;;;;;;;;5091637;28;20028;-58
2021/10/14 13:45:22;;;;;;;10.07;5.17;;;;;;;;;;5087200;28;20032;-59
2021/10/14 13:47:49;;;;;;;11.83;6.40;;;;;;;;;;5095408;28;20470;-59
2021/10/14 13:50:16;;;;;;;11.00;6.07;;;;;;;;;;5107202;28;20031;-59
2021/10/14 13:52:43;;;;;;;8.53;5.40;;;;;;;;;;5107006;28;20493;-59
2021/10/14 13:55:10;;;;;;;9.80;5.67;;;;;;;;;;5107004;28;20387;-58
2021/10/14 13:57:36;;;;;;;11.97;6.00;;;;;;;;;;5092111;28;20016;-58
2021/10/14 14:00:07;;;;;;;13.43;6.50;;;;;;;;;;5092045;28;20517;-59
2021/10/14 14:02:35;;;;;;;10.20;6.30;;;;;;;;;;5099823;28;20466;-59
2021/10/14 14:05:02;;;;;;;12.20;7.43;;;;;;;;;;5115969;28;20567;-58
2021/10/14 14:07:29;;;;;;;13.43;6.93;;;;;;;;;;5104210;28;20528;-60
2021/10/14 14:09:55;;;;;;;11.87;7.60;;;;;;;;;;5094374;28;20067;-59
2021/10/14 14:12:22;;;;;;;11.47;7.13;;;;;;;;;;5110855;28;20400;-59
2021/10/14 14:14:49;;;;;;;10.97;7.60;;;;;;;;;;5110041;28;20051;-59
2021/10/14 14:17:16;;;;;;;11.63;7.07;;;;;;;;;;5095121;28;20024;-60
2021/10/14 14:19:42;;;;;;;12.10;7.37;;;;;;;;;;5095287;28;20028;-59
2021/10/14 14:22:12;;;;;;;11.27;7.67;;;;;;;;;;5096240;28;20441;-59
2021/10/14 14:24:38;;;;;;;11.77;6.77;;;;;;;;;;5115815;28;20477;-59
2021/10/14 14:27:05;;;;;;;10.40;6.67;;;;;;;;;;5115432;28;20020;-59
2021/10/14 14:29:32;;;;;;;13.33;7.13;;;;;;;;;;5110842;28;20514;-59
2021/10/14 14:31:59;;;;;;;13.27;7.30;;;;;;;;;;5094372;28;20047;-59
2021/10/14 14:34:27;;;;;;;16.40;8.20;;;;;;;;;;5110068;28;20603;-59
2021/10/14 14:36:54;;;;;;;14.17;8.03;;;;;;;;;;5110557;28;20040;-59
2021/10/14 14:39:20;;;;;;;16.20;8.23;;;;;;;;;;5110362;28;20030;-59
2021/10/14 14:41:47;;;;;;;18.60;8.47;;;;;;;;;;5094756;28;20459;-58
2021/10/14 14:44:17;;;;;;;10.37;7.73;;;;;;;;;;5094829;28;20035;-58
2021/10/14 14:46:44;;;;;;;13.57;6.57;;;;;;;;;;5094949;28;20553;-58